sensor_id;sensor_type;location;lat;lon;timestamp;temperature;humidity
27848;DHT22;15212;48.830;8.730;2022-12-24T00:01:23;10.20;99.90
27848;DHT22;15212;48.830;8.730;2022-12-24T00:03:51;10.20;99.90
27848;DHT22;15212;48.830;8.730;2022-12-24T00:06:22;10.20;99.90
27848;DHT22;15212;48.830;8.730;2022-12-24T00:08:51;10.20;99.90
27848;DHT22;15212;48.830;8.730;2022-12-24T00:11:20;10.10;99.90
27848;DHT22;15212;48.830;8.730;2022-12-24T00:13:48;10.10;99.90
27848;DHT22;15212;48.830;8.730;2022-12-24T00:16:17;10.10;99.90
27848;DHT22;15212;48.830;8.730;2022-12-24T00:18:45;10.10;99.90
27848;DHT22;15212;48.830;8.730;2022-12-24T00:21:14;10.10;99.90
27848;DHT22;15212;48.830;8.730;2022-12-24T00:23:43;10.10;99.90
27848;DHT22;15212;48.830;8.730;2022-12-24T00:26:12;10.10;99.90
27848;DHT22;15212;48.830;8.730;2022-12-24T00:28:41;10.10;99.90
27848;DHT22;15212;48.830;8.730;2022-12-24T00:31:12;10.10;99.90
27848;DHT22;15212;48.830;8.730;2022-12-24T00:33:42;10.00;99.90
27848;DHT22;15212;48.830;8.730;2022-12-24T00:36:12;10.00;99.90
27848;DHT22;15212;48.830;8.730;2022-12-24T00:38:41;10.00;99.90
27848;DHT22;15212;48.830;8.730;2022-12-24T00:41:10;10.00;99.90
27848;DHT22;15212;48.830;8.730;2022-12-24T00:44:02;10.00;99.90
27848;DHT22;15212;48.830;8.730;2022-12-24T00:46:39;10.00;99.90
27848;DHT22;15212;48.830;8.730;2022-12-24T00:49:08;10.00;99.90
27848;DHT22;15212;48.830;8.730;2022-12-24T00:51:39;10.00;99.90
27848;DHT22;15212;48.830;8.730;2022-12-24T00:54:07;10.00;99.90
27848;DHT22;15212;48.830;8.730;2022-12-24T00:56:35;9.90;99.90
27848;DHT22;15212;48.830;8.730;2022-12-24T00:59:04;9.90;99.90
27848;DHT22;15212;48.830;8.730;2022-12-24T01:01:32;9.80;99.90
27848;DHT22;15212;48.830;8.730;2022-12-24T01:04:02;9.80;99.90
27848;DHT22;15212;48.830;8.730;2022-12-24T01:06:48;9.70;99.90
27848;DHT22;15212;48.830;8.730;2022-12-24T01:09:17;9.60;99.90
27848;DHT22;15212;48.830;8.730;2022-12-24T01:11:45;9.60;99.90
27848;DHT22;15212;48.830;8.730;2022-12-24T01:14:13;9.60;99.90
27848;DHT22;15212;48.830;8.730;2022-12-24T01:16:42;9.50;99.90
27848;DHT22;15212;48.830;8.730;2022-12-24T01:19:10;9.40;99.90
27848;DHT22;15212;48.830;8.730;2022-12-24T01:21:39;9.30;99.90
27848;DHT22;15212;48.830;8.730;2022-12-24T01:24:14;9.20;99.90
27848;DHT22;15212;48.830;8.730;2022-12-24T01:26:43;9.10;99.90
27848;DHT22;15212;48.830;8.730;2022-12-24T01:29:11;9.00;99.90
27848;DHT22;15212;48.830;8.730;2022-12-24T01:31:40;9.00;99.90
27848;DHT22;15212;48.830;8.730;2022-12-24T01:34:08;9.00;99.90
27848;DHT22;15212;48.830;8.730;2022-12-24T01:36:37;8.90;99.90
27848;DHT22;15212;48.830;8.730;2022-12-24T01:39:05;8.90;99.90
27848;DHT22;15212;48.830;8.730;2022-12-24T01:41:33;8.90;99.90
27848;DHT22;15212;48.830;8.730;2022-12-24T01:44:24;8.80;99.90
27848;DHT22;15212;48.830;8.730;2022-12-24T01:47:03;8.80;99.90
27848;DHT22;15212;48.830;8.730;2022-12-24T01:49:51;8.80;99.90
27848;DHT22;15212;48.830;8.730;2022-12-24T01:52:27;8.70;99.90
27848;DHT22;15212;48.830;8.730;2022-12-24T01:55:11;8.70;99.90
27848;DHT22;15212;48.830;8.730;2022-12-24T01:57:51;8.70;99.90
27848;DHT22;15212;48.830;8.730;2022-12-24T02:00:20;8.70;99.90
27848;DHT22;15212;48.830;8.730;2022-12-24T02:02:50;8.70;99.90
27848;DHT22;15212;48.830;8.730;2022-12-24T02:05:53;8.70;99.90
27848;DHT22;15212;48.830;8.730;2022-12-24T02:08:10;8.70;99.90
27848;DHT22;15212;48.830;8.730;2022-12-24T02:10:39;8.60;99.90
27848;DHT22;15212;48.830;8.730;2022-12-24T02:13:08;8.60;99.90
27848;DHT22;15212;48.830;8.730;2022-12-24T02:18:47;8.60;99.90
27848;DHT22;15212;48.830;8.730;2022-12-24T02:21:45;8.60;99.90
27848;DHT22;15212;48.830;8.730;2022-12-24T02:27:47;8.60;99.90
27848;DHT22;15212;48.830;8.730;2022-12-24T02:36:24;8.60;99.90
27848;DHT22;15212;48.830;8.730;2022-12-24T02:39:09;8.60;99.90
27848;DHT22;15212;48.830;8.730;2022-12-24T02:41:48;8.60;99.90
27848;DHT22;15212;48.830;8.730;2022-12-24T02:44:54;8.60;99.90
27848;DHT22;15212;48.830;8.730;2022-12-24T02:47:26;8.60;99.90
27848;DHT22;15212;48.830;8.730;2022-12-24T02:49:55;8.60;99.90
27848;DHT22;15212;48.830;8.730;2022-12-24T02:55:08;8.50;99.90
27848;DHT22;15212;48.830;8.730;2022-12-24T03:03:35;8.50;99.90
27848;DHT22;15212;48.830;8.730;2022-12-24T03:06:12;8.50;99.90
27848;DHT22;15212;48.830;8.730;2022-12-24T03:09:01;8.50;99.90
27848;DHT22;15212;48.830;8.730;2022-12-24T03:11:37;8.50;99.90
27848;DHT22;15212;48.830;8.730;2022-12-24T03:14:09;8.50;99.90
27848;DHT22;15212;48.830;8.730;2022-12-24T03:16:37;8.50;99.90
27848;DHT22;15212;48.830;8.730;2022-12-24T03:19:06;8.50;99.90
27848;DHT22;15212;48.830;8.730;2022-12-24T03:21:37;8.50;99.90
27848;DHT22;15212;48.830;8.730;2022-12-24T03:24:08;8.60;99.90
27848;DHT22;15212;48.830;8.730;2022-12-24T03:26:38;8.60;99.90
27848;DHT22;15212;48.830;8.730;2022-12-24T03:29:07;8.60;99.90
27848;DHT22;15212;48.830;8.730;2022-12-24T03:31:44;8.60;99.90
27848;DHT22;15212;48.830;8.730;2022-12-24T03:34:15;8.70;99.90
27848;DHT22;15212;48.830;8.730;2022-12-24T03:36:44;8.70;99.90
27848;DHT22;15212;48.830;8.730;2022-12-24T03:39:14;8.70;99.90
27848;DHT22;15212;48.830;8.730;2022-12-24T03:41:43;8.70;99.90
27848;DHT22;15212;48.830;8.730;2022-12-24T03:44:11;8.70;99.90
27848;DHT22;15212;48.830;8.730;2022-12-24T03:46:40;8.70;99.90
27848;DHT22;15212;48.830;8.730;2022-12-24T03:49:08;8.70;99.90
27848;DHT22;15212;48.830;8.730;2022-12-24T03:51:37;8.70;99.90
27848;DHT22;15212;48.830;8.730;2022-12-24T03:54:05;8.80;99.90
27848;DHT22;15212;48.830;8.730;2022-12-24T03:56:33;8.80;99.90
27848;DHT22;15212;48.830;8.730;2022-12-24T03:59:02;8.80;99.90
27848;DHT22;15212;48.830;8.730;2022-12-24T04:01:30;8.80;99.90
27848;DHT22;15212;48.830;8.730;2022-12-24T04:03:58;8.80;99.90
27848;DHT22;15212;48.830;8.730;2022-12-24T04:06:27;8.90;99.90
27848;DHT22;15212;48.830;8.730;2022-12-24T04:08:55;8.80;99.90
27848;DHT22;15212;48.830;8.730;2022-12-24T04:11:25;8.90;99.90
27848;DHT22;15212;48.830;8.730;2022-12-24T04:13:54;8.90;99.90
27848;DHT22;15212;48.830;8.730;2022-12-24T04:16:23;8.90;99.90
27848;DHT22;15212;48.830;8.730;2022-12-24T04:18:51;8.90;99.90
27848;DHT22;15212;48.830;8.730;2022-12-24T04:21:19;8.80;99.90
27848;DHT22;15212;48.830;8.730;2022-12-24T04:23:48;8.80;99.90
27848;DHT22;15212;48.830;8.730;2022-12-24T04:26:17;8.80;99.90
27848;DHT22;15212;48.830;8.730;2022-12-24T04:28:45;8.80;99.90
27848;DHT22;15212;48.830;8.730;2022-12-24T04:31:15;8.70;99.90
27848;DHT22;15212;48.830;8.730;2022-12-24T04:33:44;8.80;99.90
27848;DHT22;15212;48.830;8.730;2022-12-24T04:36:15;8.80;99.90
27848;DHT22;15212;48.830;8.730;2022-12-24T04:38:46;8.80;99.90
27848;DHT22;15212;48.830;8.730;2022-12-24T04:44:08;8.80;99.90
27848;DHT22;15212;48.830;8.730;2022-12-24T04:46:37;8.90;99.90
27848;DHT22;15212;48.830;8.730;2022-12-24T04:49:06;8.90;99.90
27848;DHT22;15212;48.830;8.730;2022-12-24T04:51:35;8.90;99.90
27848;DHT22;15212;48.830;8.730;2022-12-24T04:54:04;8.90;99.90
27848;DHT22;15212;48.830;8.730;2022-12-24T04:56:32;8.80;99.90
27848;DHT22;15212;48.830;8.730;2022-12-24T04:59:01;8.80;99.90
27848;DHT22;15212;48.830;8.730;2022-12-24T05:01:31;8.80;99.90
27848;DHT22;15212;48.830;8.730;2022-12-24T05:04:00;8.80;99.90
27848;DHT22;15212;48.830;8.730;2022-12-24T05:06:30;8.80;99.90
27848;DHT22;15212;48.830;8.730;2022-12-24T05:09:00;8.80;99.90
27848;DHT22;15212;48.830;8.730;2022-12-24T05:11:29;8.80;99.90
27848;DHT22;15212;48.830;8.730;2022-12-24T05:13:58;8.80;99.90
27848;DHT22;15212;48.830;8.730;2022-12-24T05:16:26;8.80;99.90
27848;DHT22;15212;48.830;8.730;2022-12-24T05:18:54;8.80;99.90
27848;DHT22;15212;48.830;8.730;2022-12-24T05:21:24;8.80;99.90
27848;DHT22;15212;48.830;8.730;2022-12-24T05:23:53;8.80;99.90
27848;DHT22;15212;48.830;8.730;2022-12-24T05:26:39;8.80;99.90
27848;DHT22;15212;48.830;8.730;2022-12-24T05:29:11;8.80;99.90
27848;DHT22;15212;48.830;8.730;2022-12-24T05:31:41;8.80;99.90
27848;DHT22;15212;48.830;8.730;2022-12-24T05:34:11;8.80;99.90
27848;DHT22;15212;48.830;8.730;2022-12-24T05:36:42;8.80;99.90
27848;DHT22;15212;48.830;8.730;2022-12-24T05:39:16;8.80;99.90
27848;DHT22;15212;48.830;8.730;2022-12-24T05:41:45;8.70;99.90
27848;DHT22;15212;48.830;8.730;2022-12-24T05:44:14;8.70;99.90
27848;DHT22;15212;48.830;8.730;2022-12-24T05:46:43;8.70;99.90
27848;DHT22;15212;48.830;8.730;2022-12-24T05:49:11;8.70;99.90
27848;DHT22;15212;48.830;8.730;2022-12-24T05:51:40;8.70;99.90
27848;DHT22;15212;48.830;8.730;2022-12-24T05:54:09;8.70;99.90
27848;DHT22;15212;48.830;8.730;2022-12-24T05:56:37;8.70;99.90
27848;DHT22;15212;48.830;8.730;2022-12-24T05:59:05;8.70;99.90
27848;DHT22;15212;48.830;8.730;2022-12-24T06:01:34;8.60;99.90
27848;DHT22;15212;48.830;8.730;2022-12-24T06:04:02;8.60;99.90
27848;DHT22;15212;48.830;8.730;2022-12-24T06:06:31;8.60;99.90
27848;DHT22;15212;48.830;8.730;2022-12-24T06:08:59;8.60;99.90
27848;DHT22;15212;48.830;8.730;2022-12-24T06:11:28;8.60;99.90
27848;DHT22;15212;48.830;8.730;2022-12-24T06:13:56;8.60;99.90
27848;DHT22;15212;48.830;8.730;2022-12-24T06:16:25;8.60;99.90
27848;DHT22;15212;48.830;8.730;2022-12-24T06:18:54;8.60;99.90
27848;DHT22;15212;48.830;8.730;2022-12-24T06:21:22;8.50;99.90
27848;DHT22;15212;48.830;8.730;2022-12-24T06:23:51;8.50;99.90
27848;DHT22;15212;48.830;8.730;2022-12-24T06:26:21;8.60;99.90
27848;DHT22;15212;48.830;8.730;2022-12-24T06:28:50;8.60;99.90
27848;DHT22;15212;48.830;8.730;2022-12-24T06:31:21;8.60;99.90
27848;DHT22;15212;48.830;8.730;2022-12-24T06:33:51;8.60;99.90
27848;DHT22;15212;48.830;8.730;2022-12-24T06:36:22;8.70;99.90
27848;DHT22;15212;48.830;8.730;2022-12-24T06:38:53;8.70;99.90
27848;DHT22;15212;48.830;8.730;2022-12-24T06:41:22;8.70;99.90
27848;DHT22;15212;48.830;8.730;2022-12-24T06:43:52;8.70;99.90
27848;DHT22;15212;48.830;8.730;2022-12-24T06:46:21;8.70;99.90
27848;DHT22;15212;48.830;8.730;2022-12-24T06:48:49;8.70;99.90
27848;DHT22;15212;48.830;8.730;2022-12-24T06:51:18;8.60;99.90
27848;DHT22;15212;48.830;8.730;2022-12-24T06:53:47;8.60;99.90
27848;DHT22;15212;48.830;8.730;2022-12-24T06:56:19;8.60;99.90
27848;DHT22;15212;48.830;8.730;2022-12-24T06:58:48;8.60;99.90
27848;DHT22;15212;48.830;8.730;2022-12-24T07:01:18;8.50;99.90
27848;DHT22;15212;48.830;8.730;2022-12-24T07:03:47;8.50;99.90
27848;DHT22;15212;48.830;8.730;2022-12-24T07:06:27;8.50;99.90
27848;DHT22;15212;48.830;8.730;2022-12-24T07:08:56;8.50;99.90
27848;DHT22;15212;48.830;8.730;2022-12-24T07:11:25;8.50;99.90
27848;DHT22;15212;48.830;8.730;2022-12-24T07:13:54;8.50;99.90
27848;DHT22;15212;48.830;8.730;2022-12-24T07:16:22;8.50;99.90
27848;DHT22;15212;48.830;8.730;2022-12-24T07:18:50;8.50;99.90
27848;DHT22;15212;48.830;8.730;2022-12-24T07:21:19;8.50;99.90
27848;DHT22;15212;48.830;8.730;2022-12-24T07:23:47;8.50;99.90
27848;DHT22;15212;48.830;8.730;2022-12-24T07:26:15;8.50;99.90
27848;DHT22;15212;48.830;8.730;2022-12-24T07:28:44;8.50;99.90
27848;DHT22;15212;48.830;8.730;2022-12-24T07:31:12;8.50;99.90
27848;DHT22;15212;48.830;8.730;2022-12-24T07:33:41;8.60;99.90
27848;DHT22;15212;48.830;8.730;2022-12-24T07:36:13;8.50;99.90
27848;DHT22;15212;48.830;8.730;2022-12-24T07:38:47;8.50;99.90
27848;DHT22;15212;48.830;8.730;2022-12-24T07:41:16;8.60;99.90
27848;DHT22;15212;48.830;8.730;2022-12-24T07:43:45;8.60;99.90
27848;DHT22;15212;48.830;8.730;2022-12-24T07:46:13;8.60;99.90
27848;DHT22;15212;48.830;8.730;2022-12-24T07:48:42;8.60;99.90
27848;DHT22;15212;48.830;8.730;2022-12-24T07:51:10;8.50;99.90
27848;DHT22;15212;48.830;8.730;2022-12-24T07:53:38;8.50;99.90
27848;DHT22;15212;48.830;8.730;2022-12-24T07:56:08;8.50;99.90
27848;DHT22;15212;48.830;8.730;2022-12-24T07:58:37;8.50;99.90
27848;DHT22;15212;48.830;8.730;2022-12-24T08:01:05;8.50;99.90
27848;DHT22;15212;48.830;8.730;2022-12-24T08:03:34;8.50;99.90
27848;DHT22;15212;48.830;8.730;2022-12-24T08:06:02;8.50;99.90
27848;DHT22;15212;48.830;8.730;2022-12-24T08:08:31;8.50;99.90
27848;DHT22;15212;48.830;8.730;2022-12-24T08:11:03;8.50;99.90
27848;DHT22;15212;48.830;8.730;2022-12-24T08:13:33;8.50;99.90
27848;DHT22;15212;48.830;8.730;2022-12-24T08:16:01;8.50;99.90
27848;DHT22;15212;48.830;8.730;2022-12-24T08:18:30;8.50;99.90
27848;DHT22;15212;48.830;8.730;2022-12-24T08:20:58;8.60;99.90
27848;DHT22;15212;48.830;8.730;2022-12-24T08:23:27;8.60;99.90
27848;DHT22;15212;48.830;8.730;2022-12-24T08:25:55;8.60;99.90
27848;DHT22;15212;48.830;8.730;2022-12-24T08:28:24;8.60;99.90
27848;DHT22;15212;48.830;8.730;2022-12-24T08:30:53;8.60;99.90
27848;DHT22;15212;48.830;8.730;2022-12-24T08:33:21;8.70;99.90
27848;DHT22;15212;48.830;8.730;2022-12-24T08:35:52;8.70;99.90
27848;DHT22;15212;48.830;8.730;2022-12-24T08:38:21;8.70;99.90
27848;DHT22;15212;48.830;8.730;2022-12-24T08:40:52;8.70;99.90
27848;DHT22;15212;48.830;8.730;2022-12-24T08:43:22;8.70;99.90
27848;DHT22;15212;48.830;8.730;2022-12-24T08:45:52;8.70;99.90
27848;DHT22;15212;48.830;8.730;2022-12-24T08:48:20;8.60;99.90
27848;DHT22;15212;48.830;8.730;2022-12-24T08:50:49;8.60;99.90
27848;DHT22;15212;48.830;8.730;2022-12-24T08:53:17;8.60;99.90
27848;DHT22;15212;48.830;8.730;2022-12-24T08:55:45;8.60;99.90
27848;DHT22;15212;48.830;8.730;2022-12-24T08:58:14;8.60;99.90
27848;DHT22;15212;48.830;8.730;2022-12-24T09:00:42;8.60;99.90
27848;DHT22;15212;48.830;8.730;2022-12-24T09:03:13;8.60;99.90
27848;DHT22;15212;48.830;8.730;2022-12-24T09:05:42;8.70;99.90
27848;DHT22;15212;48.830;8.730;2022-12-24T09:08:10;8.70;99.90
27848;DHT22;15212;48.830;8.730;2022-12-24T09:10:38;8.70;99.90
27848;DHT22;15212;48.830;8.730;2022-12-24T09:13:07;8.80;99.90
27848;DHT22;15212;48.830;8.730;2022-12-24T09:15:35;8.90;99.90
27848;DHT22;15212;48.830;8.730;2022-12-24T09:18:04;9.00;99.90
27848;DHT22;15212;48.830;8.730;2022-12-24T09:20:32;9.00;99.90
27848;DHT22;15212;48.830;8.730;2022-12-24T09:23:01;9.10;99.90
27848;DHT22;15212;48.830;8.730;2022-12-24T09:25:29;9.20;99.90
27848;DHT22;15212;48.830;8.730;2022-12-24T09:27:57;9.20;99.90
27848;DHT22;15212;48.830;8.730;2022-12-24T09:30:26;9.20;99.90
27848;DHT22;15212;48.830;8.730;2022-12-24T09:32:54;9.20;99.90
27848;DHT22;15212;48.830;8.730;2022-12-24T09:35:23;9.20;99.90
27848;DHT22;15212;48.830;8.730;2022-12-24T09:37:51;9.20;99.90
27848;DHT22;15212;48.830;8.730;2022-12-24T09:40:27;9.20;99.90
27848;DHT22;15212;48.830;8.730;2022-12-24T09:43:20;9.20;99.90
27848;DHT22;15212;48.830;8.730;2022-12-24T09:46:23;9.30;99.90
27848;DHT22;15212;48.830;8.730;2022-12-24T09:48:56;9.30;99.90
27848;DHT22;15212;48.830;8.730;2022-12-24T09:51:33;9.40;99.90
27848;DHT22;15212;48.830;8.730;2022-12-24T09:54:17;9.40;99.90
27848;DHT22;15212;48.830;8.730;2022-12-24T09:56:47;9.50;99.90
27848;DHT22;15212;48.830;8.730;2022-12-24T09:59:32;9.70;99.90
27848;DHT22;15212;48.830;8.730;2022-12-24T10:01:59;9.90;99.90
27848;DHT22;15212;48.830;8.730;2022-12-24T10:04:29;10.00;99.90
27848;DHT22;15212;48.830;8.730;2022-12-24T10:10:28;10.10;99.90
27848;DHT22;15212;48.830;8.730;2022-12-24T10:13:08;10.20;99.90
27848;DHT22;15212;48.830;8.730;2022-12-24T10:16:01;10.20;99.90
27848;DHT22;15212;48.830;8.730;2022-12-24T10:18:38;10.20;99.90
27848;DHT22;15212;48.830;8.730;2022-12-24T10:21:40;10.30;99.90
27848;DHT22;15212;48.830;8.730;2022-12-24T10:24:26;10.20;99.90
27848;DHT22;15212;48.830;8.730;2022-12-24T10:30:12;10.10;99.90
27848;DHT22;15212;48.830;8.730;2022-12-24T10:32:47;10.00;99.90
27848;DHT22;15212;48.830;8.730;2022-12-24T10:35:22;9.90;99.90
27848;DHT22;15212;48.830;8.730;2022-12-24T10:37:53;9.80;99.90
27848;DHT22;15212;48.830;8.730;2022-12-24T10:40:27;9.80;99.90
27848;DHT22;15212;48.830;8.730;2022-12-24T10:42:58;9.70;99.90
27848;DHT22;15212;48.830;8.730;2022-12-24T10:45:31;9.70;99.90
27848;DHT22;15212;48.830;8.730;2022-12-24T10:48:27;9.70;99.90
27848;DHT22;15212;48.830;8.730;2022-12-24T10:51:14;9.70;99.90
27848;DHT22;15212;48.830;8.730;2022-12-24T10:53:59;9.70;99.90
27848;DHT22;15212;48.830;8.730;2022-12-24T10:56:30;9.70;99.90
27848;DHT22;15212;48.830;8.730;2022-12-24T10:58:58;9.70;99.90
27848;DHT22;15212;48.830;8.730;2022-12-24T11:01:44;9.70;99.90
27848;DHT22;15212;48.830;8.730;2022-12-24T11:04:19;9.60;99.90
27848;DHT22;15212;48.830;8.730;2022-12-24T11:07:01;9.60;99.90
27848;DHT22;15212;48.830;8.730;2022-12-24T11:09:37;9.60;99.90
27848;DHT22;15212;48.830;8.730;2022-12-24T11:12:23;9.60;99.90
27848;DHT22;15212;48.830;8.730;2022-12-24T11:15:05;9.50;99.90
27848;DHT22;15212;48.830;8.730;2022-12-24T11:17:30;9.50;99.90
27848;DHT22;15212;48.830;8.730;2022-12-24T11:20:01;9.50;99.90
27848;DHT22;15212;48.830;8.730;2022-12-24T11:22:32;9.40;99.90
27848;DHT22;15212;48.830;8.730;2022-12-24T11:25:06;9.40;99.90
27848;DHT22;15212;48.830;8.730;2022-12-24T11:27:45;9.50;99.90
27848;DHT22;15212;48.830;8.730;2022-12-24T11:30:19;9.40;99.90
27848;DHT22;15212;48.830;8.730;2022-12-24T11:36:02;9.40;99.90
27848;DHT22;15212;48.830;8.730;2022-12-24T11:38:33;9.40;99.90
27848;DHT22;15212;48.830;8.730;2022-12-24T11:41:09;9.40;99.90
27848;DHT22;15212;48.830;8.730;2022-12-24T11:43:44;9.40;99.90
27848;DHT22;15212;48.830;8.730;2022-12-24T11:46:19;9.30;99.90
27848;DHT22;15212;48.830;8.730;2022-12-24T11:49:23;9.30;99.90
27848;DHT22;15212;48.830;8.730;2022-12-24T11:55:12;9.20;99.90
27848;DHT22;15212;48.830;8.730;2022-12-24T11:58:04;9.30;99.90
27848;DHT22;15212;48.830;8.730;2022-12-24T12:00:28;9.20;99.90
27848;DHT22;15212;48.830;8.730;2022-12-24T12:02:59;9.30;99.90
27848;DHT22;15212;48.830;8.730;2022-12-24T12:05:33;9.30;99.90
27848;DHT22;15212;48.830;8.730;2022-12-24T12:08:12;9.30;99.90
27848;DHT22;15212;48.830;8.730;2022-12-24T12:10:42;9.30;99.90
27848;DHT22;15212;48.830;8.730;2022-12-24T12:13:19;9.40;99.90
27848;DHT22;15212;48.830;8.730;2022-12-24T12:18:31;9.40;99.90
27848;DHT22;15212;48.830;8.730;2022-12-24T12:21:13;9.50;99.90
27848;DHT22;15212;48.830;8.730;2022-12-24T12:23:46;9.60;99.90
27848;DHT22;15212;48.830;8.730;2022-12-24T12:26:27;9.70;99.90
27848;DHT22;15212;48.830;8.730;2022-12-24T12:31:35;9.80;99.90
27848;DHT22;15212;48.830;8.730;2022-12-24T12:34:11;9.80;99.90
27848;DHT22;15212;48.830;8.730;2022-12-24T12:36:48;9.90;99.90
27848;DHT22;15212;48.830;8.730;2022-12-24T12:39:19;9.90;99.90
27848;DHT22;15212;48.830;8.730;2022-12-24T12:42:24;9.90;99.90
27848;DHT22;15212;48.830;8.730;2022-12-24T12:48:04;10.00;99.90
27848;DHT22;15212;48.830;8.730;2022-12-24T12:50:38;10.10;99.90
27848;DHT22;15212;48.830;8.730;2022-12-24T12:53:23;10.10;99.90
27848;DHT22;15212;48.830;8.730;2022-12-24T12:56:35;10.10;99.90
27848;DHT22;15212;48.830;8.730;2022-12-24T12:59:19;10.10;99.90
27848;DHT22;15212;48.830;8.730;2022-12-24T13:02:09;10.00;99.90
27848;DHT22;15212;48.830;8.730;2022-12-24T13:04:55;10.00;99.90
27848;DHT22;15212;48.830;8.730;2022-12-24T13:07:55;10.00;99.90
27848;DHT22;15212;48.830;8.730;2022-12-24T13:10:46;10.00;99.90
27848;DHT22;15212;48.830;8.730;2022-12-24T13:13:50;10.00;99.90
27848;DHT22;15212;48.830;8.730;2022-12-24T13:22:36;9.90;99.90
27848;DHT22;15212;48.830;8.730;2022-12-24T13:25:05;9.90;99.90
27848;DHT22;15212;48.830;8.730;2022-12-24T13:27:35;9.90;99.90
27848;DHT22;15212;48.830;8.730;2022-12-24T13:30:31;9.90;99.90
27848;DHT22;15212;48.830;8.730;2022-12-24T13:33:08;9.90;99.90
27848;DHT22;15212;48.830;8.730;2022-12-24T13:38:30;10.00;99.90
27848;DHT22;15212;48.830;8.730;2022-12-24T13:47:02;9.90;99.90
27848;DHT22;15212;48.830;8.730;2022-12-24T13:49:47;9.90;99.90
27848;DHT22;15212;48.830;8.730;2022-12-24T13:52:21;9.90;99.90
27848;DHT22;15212;48.830;8.730;2022-12-24T13:57:38;9.80;99.90
27848;DHT22;15212;48.830;8.730;2022-12-24T14:08:44;9.90;99.90
27848;DHT22;15212;48.830;8.730;2022-12-24T14:11:17;9.90;99.90
27848;DHT22;15212;48.830;8.730;2022-12-24T14:13:50;10.00;99.90
27848;DHT22;15212;48.830;8.730;2022-12-24T14:16:25;10.00;99.90
27848;DHT22;15212;48.830;8.730;2022-12-24T14:21:31;10.00;99.90
27848;DHT22;15212;48.830;8.730;2022-12-24T14:24:21;10.00;99.90
27848;DHT22;15212;48.830;8.730;2022-12-24T14:26:56;10.00;99.90
27848;DHT22;15212;48.830;8.730;2022-12-24T14:29:27;10.00;99.90
27848;DHT22;15212;48.830;8.730;2022-12-24T14:32:00;10.00;99.90
27848;DHT22;15212;48.830;8.730;2022-12-24T14:34:31;10.00;99.90
27848;DHT22;15212;48.830;8.730;2022-12-24T14:37:01;10.00;99.90
27848;DHT22;15212;48.830;8.730;2022-12-24T14:39:36;9.90;99.90
27848;DHT22;15212;48.830;8.730;2022-12-24T14:45:18;9.80;99.90
27848;DHT22;15212;48.830;8.730;2022-12-24T14:47:55;9.80;99.90
27848;DHT22;15212;48.830;8.730;2022-12-24T14:53:25;9.70;99.90
27848;DHT22;15212;48.830;8.730;2022-12-24T14:56:12;9.70;99.90
27848;DHT22;15212;48.830;8.730;2022-12-24T14:58:42;9.60;99.90
27848;DHT22;15212;48.830;8.730;2022-12-24T15:01:28;9.50;99.90
27848;DHT22;15212;48.830;8.730;2022-12-24T15:06:52;9.40;99.90
27848;DHT22;15212;48.830;8.730;2022-12-24T15:09:24;9.40;99.90
27848;DHT22;15212;48.830;8.730;2022-12-24T15:11:57;9.30;99.90
27848;DHT22;15212;48.830;8.730;2022-12-24T15:14:29;9.20;99.90
27848;DHT22;15212;48.830;8.730;2022-12-24T15:17:02;9.20;99.90
27848;DHT22;15212;48.830;8.730;2022-12-24T15:19:37;9.10;99.90
27848;DHT22;15212;48.830;8.730;2022-12-24T15:22:25;9.10;99.90
27848;DHT22;15212;48.830;8.730;2022-12-24T15:24:55;9.00;99.90
27848;DHT22;15212;48.830;8.730;2022-12-24T15:27:25;9.00;99.90
27848;DHT22;15212;48.830;8.730;2022-12-24T15:29:56;8.90;99.90
27848;DHT22;15212;48.830;8.730;2022-12-24T15:32:25;8.90;99.90
27848;DHT22;15212;48.830;8.730;2022-12-24T15:34:54;8.90;99.90
27848;DHT22;15212;48.830;8.730;2022-12-24T15:37:28;8.80;99.90
27848;DHT22;15212;48.830;8.730;2022-12-24T15:40:07;8.80;99.90
27848;DHT22;15212;48.830;8.730;2022-12-24T15:42:41;8.70;99.90
27848;DHT22;15212;48.830;8.730;2022-12-24T15:45:17;8.70;99.90
27848;DHT22;15212;48.830;8.730;2022-12-24T15:47:52;8.70;99.90
27848;DHT22;15212;48.830;8.730;2022-12-24T15:50:28;8.70;99.90
27848;DHT22;15212;48.830;8.730;2022-12-24T15:53:06;8.60;99.90
27848;DHT22;15212;48.830;8.730;2022-12-24T15:55:45;8.60;99.90
27848;DHT22;15212;48.830;8.730;2022-12-24T15:58:22;8.60;99.90
27848;DHT22;15212;48.830;8.730;2022-12-24T16:03:55;8.50;99.90
27848;DHT22;15212;48.830;8.730;2022-12-24T16:06:25;8.50;99.90
27848;DHT22;15212;48.830;8.730;2022-12-24T16:08:54;8.40;99.90
27848;DHT22;15212;48.830;8.730;2022-12-24T16:11:32;8.40;99.90
27848;DHT22;15212;48.830;8.730;2022-12-24T16:14:13;8.40;99.90
27848;DHT22;15212;48.830;8.730;2022-12-24T16:16:47;8.40;99.90
27848;DHT22;15212;48.830;8.730;2022-12-24T16:19:31;8.40;99.90
27848;DHT22;15212;48.830;8.730;2022-12-24T16:22:02;8.30;99.90
27848;DHT22;15212;48.830;8.730;2022-12-24T16:24:34;8.30;99.90
27848;DHT22;15212;48.830;8.730;2022-12-24T16:27:04;8.30;99.90
27848;DHT22;15212;48.830;8.730;2022-12-24T16:29:35;8.20;99.90
27848;DHT22;15212;48.830;8.730;2022-12-24T16:32:04;8.20;99.90
27848;DHT22;15212;48.830;8.730;2022-12-24T16:34:33;8.20;99.90
27848;DHT22;15212;48.830;8.730;2022-12-24T16:37:01;8.20;99.90
27848;DHT22;15212;48.830;8.730;2022-12-24T16:39:31;8.20;99.90
27848;DHT22;15212;48.830;8.730;2022-12-24T16:42:02;8.20;99.90
27848;DHT22;15212;48.830;8.730;2022-12-24T16:44:51;8.20;99.90
27848;DHT22;15212;48.830;8.730;2022-12-24T16:47:26;8.30;99.90
27848;DHT22;15212;48.830;8.730;2022-12-24T16:49:57;8.30;99.90
27848;DHT22;15212;48.830;8.730;2022-12-24T16:52:28;8.40;99.90
27848;DHT22;15212;48.830;8.730;2022-12-24T16:55:00;8.40;99.90
27848;DHT22;15212;48.830;8.730;2022-12-24T16:57:28;8.50;99.90
27848;DHT22;15212;48.830;8.730;2022-12-24T17:00:05;8.50;99.90
27848;DHT22;15212;48.830;8.730;2022-12-24T17:02:34;8.60;99.90
27848;DHT22;15212;48.830;8.730;2022-12-24T17:05:03;8.70;99.90
27848;DHT22;15212;48.830;8.730;2022-12-24T17:07:31;8.70;99.90
27848;DHT22;15212;48.830;8.730;2022-12-24T17:10:00;8.80;99.90
27848;DHT22;15212;48.830;8.730;2022-12-24T17:12:28;8.80;99.90
27848;DHT22;15212;48.830;8.730;2022-12-24T17:14:57;8.90;99.90
27848;DHT22;15212;48.830;8.730;2022-12-24T17:17:27;8.90;99.90
27848;DHT22;15212;48.830;8.730;2022-12-24T17:19:57;8.90;99.90
27848;DHT22;15212;48.830;8.730;2022-12-24T17:22:26;8.90;99.90
27848;DHT22;15212;48.830;8.730;2022-12-24T17:24:54;8.90;99.90
27848;DHT22;15212;48.830;8.730;2022-12-24T17:27:23;8.90;99.90
27848;DHT22;15212;48.830;8.730;2022-12-24T17:29:52;8.90;99.90
27848;DHT22;15212;48.830;8.730;2022-12-24T17:32:20;8.90;99.90
27848;DHT22;15212;48.830;8.730;2022-12-24T17:34:49;8.80;99.90
27848;DHT22;15212;48.830;8.730;2022-12-24T17:37:17;8.80;99.90
27848;DHT22;15212;48.830;8.730;2022-12-24T17:39:45;8.80;99.90
27848;DHT22;15212;48.830;8.730;2022-12-24T17:42:14;8.80;99.90
27848;DHT22;15212;48.830;8.730;2022-12-24T17:44:42;8.70;99.90
27848;DHT22;15212;48.830;8.730;2022-12-24T17:47:10;8.70;99.90